createdAt,value
2018-08-17T00:01:04.878Z,14.30
2018-08-17T00:03:32.465Z,14.10
2018-08-17T00:06:00.080Z,14.23
2018-08-17T00:08:27.618Z,15.13
2018-08-17T00:10:55.140Z,14.25
2018-08-17T00:13:22.852Z,14.10
2018-08-17T00:15:50.426Z,14.03
2018-08-17T00:18:18.005Z,13.93
2018-08-17T00:20:45.758Z,13.60
2018-08-17T00:23:13.430Z,13.62
2018-08-17T00:25:41.031Z,14.23
2018-08-17T00:28:09.839Z,13.07
2018-08-17T00:30:37.785Z,13.67
2018-08-17T00:33:05.807Z,13.67
2018-08-17T00:35:35.930Z,12.93
2018-08-17T00:38:03.626Z,12.93
2018-08-17T00:40:31.497Z,12.33
2018-08-17T00:42:59.382Z,13.48
2018-08-17T00:45:27.019Z,12.90
2018-08-17T00:47:55.023Z,12.80
2018-08-17T00:50:22.854Z,12.80
2018-08-17T00:52:50.505Z,12.77
2018-08-17T00:55:18.176Z,12.93
2018-08-17T00:57:45.968Z,12.07
2018-08-17T01:00:13.887Z,13.20
2018-08-17T01:02:41.530Z,12.27
2018-08-17T01:05:09.527Z,12.00
2018-08-17T01:07:37.133Z,13.57
2018-08-17T01:10:05.221Z,13.87
2018-08-17T01:12:32.939Z,13.13
2018-08-17T01:15:00.650Z,13.67
2018-08-17T01:17:28.309Z,12.67
2018-08-17T01:19:56.106Z,13.23
2018-08-17T01:22:23.966Z,14.83
2018-08-17T01:24:51.653Z,15.17
2018-08-17T01:27:20.742Z,14.50
2018-08-17T01:29:48.638Z,14.63
2018-08-17T01:32:16.469Z,13.30
2018-08-17T01:34:44.369Z,12.80
2018-08-17T01:37:12.554Z,14.30
2018-08-17T01:39:40.389Z,14.70
2018-08-17T01:42:08.362Z,14.63
2018-08-17T01:44:36.112Z,14.53
2018-08-17T01:47:03.952Z,14.13
2018-08-17T01:49:31.564Z,13.97
2018-08-17T01:51:59.258Z,14.47
2018-08-17T01:54:26.779Z,14.23
2018-08-17T01:56:54.373Z,13.85
2018-08-17T01:59:21.910Z,13.90
2018-08-17T02:01:49.492Z,14.40
2018-08-17T02:04:17.035Z,14.87
2018-08-17T02:06:44.618Z,13.40
2018-08-17T02:09:12.157Z,14.30
2018-08-17T02:11:39.725Z,14.63
2018-08-17T02:14:07.269Z,15.20
2018-08-17T02:16:34.846Z,13.97
2018-08-17T02:19:02.437Z,15.57
2018-08-17T02:21:30.058Z,15.20
2018-08-17T02:23:57.614Z,15.73
2018-08-17T02:26:25.207Z,16.62
2018-08-17T02:28:52.745Z,16.73
2018-08-17T02:31:20.496Z,16.20
2018-08-17T02:33:48.037Z,16.10
2018-08-17T02:36:15.729Z,16.63
2018-08-17T02:38:43.341Z,18.17
2018-08-17T02:41:11.039Z,18.50
2018-08-17T02:43:38.722Z,15.63
2018-08-17T02:46:06.275Z,18.13
2018-08-17T02:48:33.905Z,19.27
2018-08-17T02:51:01.518Z,19.70
2018-08-17T02:53:29.089Z,20.57
2018-08-17T02:56:03.541Z,18.40
2018-08-17T03:03:01.425Z,21.60
2018-08-17T03:05:28.966Z,22.83
2018-08-17T03:07:56.515Z,20.47
2018-08-17T03:10:24.097Z,21.50
2018-08-17T03:12:51.700Z,21.30
2018-08-17T03:15:19.264Z,21.12
2018-08-17T03:17:46.843Z,22.80
2018-08-17T03:20:14.606Z,20.63
2018-08-17T03:22:42.182Z,19.07
2018-08-17T03:25:09.784Z,19.43
2018-08-17T03:27:37.326Z,19.90
2018-08-17T03:30:04.877Z,18.30
2018-08-17T03:32:32.472Z,19.37
2018-08-17T03:35:00.051Z,20.30
2018-08-17T03:37:27.742Z,19.20
2018-08-17T03:39:55.299Z,18.87
2018-08-17T03:42:23.014Z,19.20
2018-08-17T03:44:56.471Z,17.87
2018-08-17T03:47:24.044Z,17.27
2018-08-17T03:49:51.742Z,19.47
2018-08-17T03:52:19.289Z,17.70
2018-08-17T03:54:47.704Z,16.07
2018-08-17T03:57:15.301Z,17.07
2018-08-17T03:59:42.864Z,16.73
2018-08-17T04:02:10.636Z,17.23
2018-08-17T04:04:38.427Z,16.00
2018-08-17T04:07:05.957Z,16.00
2018-08-17T04:09:33.659Z,15.87
2018-08-17T04:12:01.195Z,15.07
2018-08-17T04:14:28.845Z,14.73
2018-08-17T04:16:56.409Z,14.05
2018-08-17T04:19:24.117Z,13.27
2018-08-17T04:21:51.668Z,13.37
2018-08-17T04:24:19.231Z,12.27
2018-08-17T04:26:47.039Z,12.27
2018-08-17T04:29:14.581Z,11.83
2018-08-17T04:31:42.200Z,11.77
2018-08-17T04:34:12.599Z,12.80
2018-08-17T04:36:40.247Z,10.90
2018-08-17T04:39:08.440Z,10.70
2018-08-17T04:41:36.571Z,9.90
2018-08-17T04:44:04.151Z,9.87
2018-08-17T04:46:32.716Z,9.67
2018-08-17T04:49:00.329Z,9.55
2018-08-17T04:51:27.880Z,9.27
2018-08-17T04:53:55.686Z,10.23
2018-08-17T04:56:23.243Z,9.27
2018-08-17T04:58:50.814Z,9.40
2018-08-17T05:01:19.534Z,9.37
2018-08-17T05:03:47.085Z,9.33
2018-08-17T05:06:14.674Z,9.37
2018-08-17T05:08:42.219Z,9.17
2018-08-17T05:11:09.851Z,7.63
2018-08-17T05:13:37.395Z,8.43
2018-08-17T05:16:04.976Z,8.53
2018-08-17T05:18:32.606Z,8.40
2018-08-17T05:21:00.330Z,8.57
2018-08-17T05:23:27.922Z,7.87
2018-08-17T05:25:55.539Z,7.77
2018-08-17T05:28:23.093Z,7.80
2018-08-17T05:30:50.662Z,7.83
2018-08-17T05:33:18.214Z,6.07
2018-08-17T05:35:45.791Z,6.87
2018-08-17T05:38:13.532Z,6.97
2018-08-17T05:40:41.287Z,6.75
2018-08-17T05:43:09.192Z,6.53
2018-08-17T05:45:36.816Z,6.50
2018-08-17T05:48:04.361Z,6.63
2018-08-17T05:50:31.886Z,6.37
2018-08-17T05:52:59.519Z,7.15
2018-08-17T05:55:27.242Z,6.20
2018-08-17T05:57:54.780Z,6.73
2018-08-17T06:00:22.349Z,6.10
2018-08-17T06:02:49.900Z,6.47
2018-08-17T06:05:19.629Z,6.30
2018-08-17T06:07:47.181Z,6.47
2018-08-17T06:10:14.796Z,5.23
2018-08-17T06:12:44.416Z,6.00
2018-08-17T06:15:12.127Z,5.60
2018-08-17T06:17:39.697Z,6.03
2018-08-17T06:20:07.251Z,5.77
2018-08-17T06:22:34.891Z,5.43
2018-08-17T06:25:02.645Z,5.75
2018-08-17T06:27:30.316Z,6.00
2018-08-17T06:29:57.907Z,5.47
2018-08-17T06:32:25.571Z,6.20
2018-08-17T06:34:53.348Z,6.87
2018-08-17T06:37:21.180Z,7.10
2018-08-17T06:39:48.905Z,5.27
2018-08-17T06:42:16.478Z,7.23
2018-08-17T06:44:44.061Z,6.33
2018-08-17T06:47:11.612Z,5.87
2018-08-17T06:49:39.199Z,5.83
2018-08-17T06:52:06.767Z,5.57
2018-08-17T06:54:34.380Z,4.40
2018-08-17T06:57:01.975Z,4.70
2018-08-17T06:59:29.495Z,5.23
2018-08-17T07:01:57.076Z,5.20
2018-08-17T07:04:24.686Z,5.40
2018-08-17T07:06:52.288Z,5.27
2018-08-17T07:09:19.955Z,6.00
2018-08-17T07:11:47.457Z,5.60
2018-08-17T07:14:14.975Z,5.77
2018-08-17T07:16:42.637Z,5.73
2018-08-17T07:19:15.595Z,6.00
2018-08-17T07:21:43.221Z,6.90
2018-08-17T07:24:10.756Z,7.27
2018-08-17T07:26:39.557Z,8.33
2018-08-17T07:29:07.100Z,8.23
2018-08-17T07:31:34.667Z,8.20
2018-08-17T07:34:02.220Z,8.13
2018-08-17T07:36:30.906Z,8.67
2018-08-17T07:38:58.452Z,8.37
2018-08-17T07:41:26.031Z,7.77
2018-08-17T07:43:53.594Z,7.27
2018-08-17T07:46:22.233Z,7.45
2018-08-17T07:48:49.825Z,7.03
2018-08-17T07:51:17.372Z,6.40
2018-08-17T07:53:44.934Z,6.63
2018-08-17T07:56:12.710Z,6.90
2018-08-17T07:58:40.271Z,6.47
2018-08-17T08:01:07.792Z,5.70
2018-08-17T08:03:35.361Z,6.10
2018-08-17T08:06:06.822Z,6.77
2018-08-17T08:08:34.394Z,5.63
2018-08-17T08:11:01.970Z,6.00
2018-08-17T08:13:29.518Z,5.80
2018-08-17T08:15:57.095Z,6.13
2018-08-17T08:18:24.788Z,5.93
2018-08-17T08:20:52.615Z,6.07
2018-08-17T08:23:20.287Z,6.30
2018-08-17T08:25:47.845Z,5.83
2018-08-17T08:28:15.548Z,6.80
2018-08-17T08:30:46.770Z,6.70
2018-08-17T08:33:14.307Z,6.57
2018-08-17T08:35:41.935Z,7.03
2018-08-17T08:38:09.637Z,7.00
2018-08-17T08:40:37.167Z,6.87
2018-08-17T08:43:04.748Z,7.65
2018-08-17T08:45:32.392Z,8.77
2018-08-17T08:47:59.883Z,8.83
2018-08-17T08:50:27.656Z,9.00
2018-08-17T08:52:55.358Z,8.40
2018-08-17T08:55:24.008Z,9.53
2018-08-17T08:57:51.824Z,9.60
2018-08-17T09:00:19.385Z,10.40
2018-08-17T09:02:46.975Z,9.90
2018-08-17T09:05:14.507Z,9.10
2018-08-17T09:07:42.102Z,9.65
2018-08-17T09:10:09.719Z,10.00
2018-08-17T09:12:39.339Z,8.90
2018-08-17T09:15:06.919Z,8.57
2018-08-17T09:17:34.507Z,9.70
2018-08-17T09:20:02.077Z,9.15
2018-08-17T09:22:29.777Z,8.37
2018-08-17T09:24:57.374Z,7.87
2018-08-17T09:27:26.285Z,8.97
2018-08-17T09:29:54.000Z,8.27
2018-08-17T09:32:21.597Z,9.23
2018-08-17T09:34:49.188Z,8.87
2018-08-17T09:37:16.796Z,9.30
2018-08-17T09:39:44.393Z,8.63
2018-08-17T09:42:12.010Z,8.73
2018-08-17T09:44:39.522Z,10.27
2018-08-17T09:47:07.259Z,8.98
2018-08-17T09:49:35.052Z,9.83
2018-08-17T09:52:02.965Z,9.60
2018-08-17T09:54:32.350Z,9.10
2018-08-17T09:57:00.085Z,9.50
2018-08-17T09:59:27.755Z,8.87
2018-08-17T10:02:12.290Z,8.73
2018-08-17T10:04:39.907Z,8.83
2018-08-17T10:07:07.680Z,9.27
2018-08-17T10:09:35.294Z,9.30
2018-08-17T10:12:02.924Z,8.83
2018-08-17T10:14:30.975Z,8.83
2018-08-17T10:16:58.590Z,9.20
2018-08-17T10:19:26.239Z,8.43
2018-08-17T10:21:54.331Z,7.73
2018-08-17T10:24:21.824Z,9.23
2018-08-17T10:26:49.512Z,7.00
2018-08-17T10:29:17.227Z,7.23
2018-08-17T10:31:44.949Z,7.57
2018-08-17T10:34:12.548Z,8.03
2018-08-17T10:36:40.260Z,7.33
2018-08-17T10:39:08.039Z,8.13
2018-08-17T10:41:35.747Z,8.40
2018-08-17T10:44:03.450Z,8.80
2018-08-17T10:46:31.018Z,8.70
2018-08-17T10:49:02.965Z,9.50
2018-08-17T10:51:30.812Z,10.13
2018-08-17T10:53:58.556Z,9.33
2018-08-17T10:56:26.119Z,9.67
2018-08-17T10:58:53.925Z,10.25
2018-08-17T11:01:21.565Z,10.70
2018-08-17T11:03:49.405Z,11.23
2018-08-17T11:06:17.263Z,11.00
2018-08-17T11:08:45.384Z,10.37
2018-08-17T11:11:13.679Z,10.00
2018-08-17T11:13:42.557Z,9.97
2018-08-17T11:16:10.450Z,10.27
2018-08-17T11:18:38.016Z,9.80
2018-08-17T11:21:05.699Z,11.70
2018-08-17T11:23:33.333Z,12.13
2018-08-17T11:26:01.145Z,11.73
2018-08-17T11:28:28.930Z,9.70
2018-08-17T11:30:56.485Z,10.83
2018-08-17T11:33:24.658Z,11.97
2018-08-17T11:35:52.257Z,12.23
2018-08-17T11:38:20.125Z,14.03
2018-08-17T11:40:49.688Z,14.27
2018-08-17T11:43:18.262Z,15.97
2018-08-17T11:45:46.009Z,14.23
2018-08-17T11:48:13.816Z,15.50
2018-08-17T11:50:41.418Z,18.80
2018-08-17T11:53:09.311Z,17.63
2018-08-17T11:55:36.850Z,22.73
2018-08-17T11:58:04.743Z,21.03
2018-08-17T12:00:32.288Z,21.67
2018-08-17T12:02:59.862Z,24.20
2018-08-17T12:05:27.524Z,25.33
2018-08-17T12:07:55.145Z,23.60
2018-08-17T12:10:22.707Z,22.83
2018-08-17T12:12:50.329Z,21.60
2018-08-17T12:15:17.987Z,18.30
2018-08-17T12:17:46.442Z,14.73
2018-08-17T12:20:15.001Z,14.40
2018-08-17T12:22:43.017Z,14.70
2018-08-17T12:25:10.598Z,16.07
2018-08-17T12:27:38.192Z,15.90
2018-08-17T12:30:05.795Z,15.67
2018-08-17T12:32:33.334Z,14.23
2018-08-17T12:35:00.960Z,13.68
2018-08-17T12:37:28.521Z,13.60
2018-08-17T12:39:56.148Z,14.83
2018-08-17T12:42:23.884Z,15.23
2018-08-17T12:44:51.461Z,15.80
2018-08-17T12:47:20.105Z,14.23
2018-08-17T12:49:48.222Z,16.50
2018-08-17T12:52:16.129Z,16.13
2018-08-17T12:54:44.446Z,17.53
2018-08-17T12:57:12.606Z,16.43
2018-08-17T12:59:41.190Z,18.07
2018-08-17T13:02:09.179Z,18.00
2018-08-17T13:04:36.971Z,15.80
2018-08-17T13:07:04.619Z,18.35
2018-08-17T13:09:32.585Z,19.37
2018-08-17T13:12:01.472Z,18.13
2018-08-17T13:14:29.836Z,17.13
2018-08-17T13:16:57.459Z,17.17
2018-08-17T13:19:25.358Z,18.03
2018-08-17T13:21:52.954Z,17.73
2018-08-17T13:24:20.777Z,19.90
2018-08-17T13:26:48.554Z,18.23
2018-08-17T13:29:16.479Z,19.57
2018-08-17T13:31:44.220Z,18.70
2018-08-17T13:34:12.355Z,21.67
2018-08-17T13:36:39.952Z,21.43
2018-08-17T13:39:08.592Z,21.63
2018-08-17T13:41:36.496Z,19.17
2018-08-17T13:44:04.704Z,19.27
2018-08-17T13:46:32.614Z,16.40
2018-08-17T13:49:01.031Z,16.87
2018-08-17T13:51:28.944Z,16.20
2018-08-17T13:53:56.610Z,14.63
2018-08-17T13:56:24.301Z,13.17
2018-08-17T13:58:52.191Z,11.77
2018-08-17T14:01:19.973Z,11.10
2018-08-17T14:03:47.761Z,9.43
2018-08-17T14:06:15.287Z,8.57
2018-08-17T14:08:42.893Z,7.23
2018-08-17T14:11:10.412Z,7.00
2018-08-17T14:13:38.141Z,6.77
2018-08-17T14:16:05.843Z,5.87
2018-08-17T14:18:33.417Z,5.93
2018-08-17T14:21:01.158Z,5.90
2018-08-17T14:23:28.741Z,6.17
2018-08-17T14:25:56.302Z,6.80
2018-08-17T14:28:23.842Z,6.13
2018-08-17T14:30:51.509Z,6.22
2018-08-17T14:33:19.085Z,6.27
2018-08-17T14:35:46.653Z,6.60
2018-08-17T14:38:14.210Z,7.70
2018-08-17T14:40:41.800Z,6.63
2018-08-17T14:43:09.413Z,7.87
2018-08-17T14:45:36.960Z,7.33
2018-08-17T14:48:04.559Z,8.50
2018-08-17T14:50:32.075Z,8.47
2018-08-17T14:52:59.696Z,8.20
2018-08-17T14:55:27.289Z,7.43
2018-08-17T14:57:54.888Z,7.33
2018-08-17T15:00:22.788Z,7.33
2018-08-17T15:02:51.507Z,6.50
2018-08-17T15:05:19.341Z,6.37
2018-08-17T15:07:47.047Z,6.17
2018-08-17T15:10:14.602Z,5.80
2018-08-17T15:12:42.745Z,5.87
2018-08-17T15:15:10.506Z,5.43
2018-08-17T15:17:38.070Z,5.80
2018-08-17T15:20:05.653Z,5.47
2018-08-17T15:22:33.498Z,5.97
2018-08-17T15:25:01.302Z,5.43
2018-08-17T15:27:29.136Z,5.33
2018-08-17T15:29:56.726Z,4.77
2018-08-17T15:32:24.364Z,5.90
2018-08-17T15:34:52.241Z,5.30
2018-08-17T15:37:19.925Z,4.90
2018-08-17T15:39:47.520Z,5.50
2018-08-17T15:42:15.058Z,6.23
2018-08-17T15:44:42.640Z,5.13
2018-08-17T15:47:10.170Z,5.47
2018-08-17T15:49:39.053Z,6.20
2018-08-17T15:52:06.602Z,4.80
2018-08-17T15:54:34.417Z,5.00
2018-08-17T15:57:02.024Z,4.90
2018-08-17T15:59:30.302Z,5.43
2018-08-17T16:01:58.554Z,5.00
2018-08-17T16:04:26.537Z,5.37
2018-08-17T16:06:54.638Z,4.93
2018-08-17T16:09:22.313Z,5.00
2018-08-17T16:11:50.059Z,5.80
2018-08-17T16:14:17.779Z,5.70
2018-08-17T16:16:45.556Z,4.60
2018-08-17T16:19:13.074Z,5.63
2018-08-17T16:21:40.785Z,5.57
2018-08-17T16:24:08.325Z,4.80
2018-08-17T16:26:35.865Z,5.83
2018-08-17T16:29:03.486Z,5.13
2018-08-17T16:31:31.058Z,5.57
2018-08-17T16:33:58.632Z,4.37
2018-08-17T16:36:26.190Z,5.10
2018-08-17T16:38:53.717Z,4.80
2018-08-17T16:41:21.359Z,4.63
2018-08-17T16:43:48.875Z,4.67
2018-08-17T16:46:16.501Z,5.57
2018-08-17T16:48:44.085Z,13.97
2018-08-17T16:51:11.769Z,5.20
2018-08-17T16:53:39.362Z,5.17
2018-08-17T16:56:07.217Z,4.30
2018-08-17T16:58:35.195Z,4.03
2018-08-17T17:01:03.105Z,4.05
2018-08-17T17:03:30.685Z,4.17
2018-08-17T17:05:58.252Z,4.47
2018-08-17T17:08:25.260Z,4.30
2018-08-17T17:10:53.082Z,4.00
2018-08-17T17:13:20.869Z,4.10
2018-08-17T17:15:48.516Z,3.17
2018-08-17T17:18:17.217Z,3.97
2018-08-17T17:20:44.827Z,3.97
2018-08-17T17:23:12.367Z,3.37
2018-08-17T17:25:39.941Z,3.40
2018-08-17T17:28:07.467Z,3.70
2018-08-17T17:30:35.034Z,3.30
2018-08-17T17:33:07.233Z,3.20
2018-08-17T17:35:34.820Z,3.20
2018-08-17T17:38:02.421Z,3.20
2018-08-17T17:40:30.096Z,3.27
2018-08-17T17:42:57.649Z,2.80
2018-08-17T17:45:25.208Z,2.90
2018-08-17T17:47:52.814Z,2.70
2018-08-17T17:50:20.341Z,2.73
2018-08-17T17:52:48.445Z,3.07
2018-08-17T17:55:17.075Z,3.20
2018-08-17T17:57:44.656Z,3.37
2018-08-17T18:00:12.226Z,4.07
2018-08-17T18:02:39.790Z,3.47
2018-08-17T18:05:07.369Z,3.90
2018-08-17T18:07:34.889Z,2.90
2018-08-17T18:10:02.427Z,3.13
2018-08-17T18:12:29.979Z,3.30
2018-08-17T18:14:57.717Z,2.77
2018-08-17T18:17:25.264Z,3.33
2018-08-17T18:19:52.840Z,2.93
2018-08-17T18:22:20.394Z,2.97
2018-08-17T18:24:48.331Z,3.00
2018-08-17T18:27:15.916Z,3.23
2018-08-17T18:29:43.492Z,3.20
2018-08-17T18:32:11.202Z,2.97
2018-08-17T18:34:38.878Z,3.23
2018-08-17T18:37:06.583Z,3.23
2018-08-17T18:39:34.090Z,3.27
2018-08-17T18:42:01.672Z,3.43
2018-08-17T18:44:29.207Z,2.77
2018-08-17T18:46:56.841Z,3.28
2018-08-17T18:49:24.363Z,2.90
2018-08-17T18:51:51.980Z,3.40
2018-08-17T18:54:19.504Z,3.20
2018-08-17T18:56:47.062Z,2.90
2018-08-17T18:59:14.671Z,3.27
2018-08-17T19:01:42.195Z,3.20
2018-08-17T19:04:09.769Z,2.90
2018-08-17T19:06:37.341Z,2.83
2018-08-17T19:09:04.859Z,3.90
2018-08-17T19:11:32.429Z,2.93
2018-08-17T19:14:00.015Z,3.00
2018-08-17T19:16:27.544Z,2.63
2018-08-17T19:18:55.122Z,3.10
2018-08-17T19:21:22.675Z,2.93
2018-08-17T19:23:50.225Z,2.87
2018-08-17T19:26:17.799Z,3.37
2018-08-17T19:28:45.387Z,3.57
2018-08-17T19:31:12.919Z,3.30
2018-08-17T19:33:40.472Z,3.27
2018-08-17T19:36:07.990Z,3.23
2018-08-17T19:38:35.621Z,3.03
2018-08-17T19:41:03.364Z,3.08
2018-08-17T19:43:30.955Z,3.30
2018-08-17T19:45:58.576Z,3.30
2018-08-17T19:48:26.068Z,3.23
2018-08-17T19:50:53.842Z,3.40
2018-08-17T19:53:21.356Z,3.40
2018-08-17T19:55:48.950Z,3.63
2018-08-17T19:58:16.541Z,3.73
2018-08-17T20:00:44.272Z,4.17
2018-08-17T20:03:12.069Z,3.43
2018-08-17T20:05:41.697Z,3.83
2018-08-17T20:08:09.297Z,3.80
2018-08-17T20:10:36.850Z,3.50
2018-08-17T20:13:04.406Z,3.53
2018-08-17T20:15:31.982Z,3.57
2018-08-17T20:17:59.592Z,3.27
2018-08-17T20:20:27.372Z,3.70
2018-08-17T20:22:54.896Z,3.60
2018-08-17T20:25:22.533Z,3.27
2018-08-17T20:27:50.121Z,3.40
2018-08-17T20:30:17.779Z,3.93
2018-08-17T20:32:45.589Z,4.10
2018-08-17T20:35:13.141Z,3.67
2018-08-17T20:37:40.692Z,4.20
2018-08-17T20:40:08.288Z,5.07
2018-08-17T20:42:35.807Z,4.90
2018-08-17T20:45:03.496Z,4.87
2018-08-17T20:47:31.103Z,4.90
2018-08-17T20:49:58.670Z,4.20
2018-08-17T20:52:27.367Z,4.10
2018-08-17T20:54:54.958Z,4.47
2018-08-17T20:57:22.528Z,3.70
2018-08-17T20:59:50.108Z,3.30
2018-08-17T21:02:17.724Z,3.70
2018-08-17T21:04:45.405Z,3.60
2018-08-17T21:07:12.981Z,3.83
2018-08-17T21:09:40.524Z,3.37
2018-08-17T21:12:08.319Z,3.80
2018-08-17T21:14:36.005Z,3.33
2018-08-17T21:17:03.577Z,3.60
2018-08-17T21:19:31.159Z,3.30
2018-08-17T21:21:58.687Z,3.77
2018-08-17T21:24:26.281Z,3.90
2018-08-17T21:26:53.799Z,4.18
2018-08-17T21:29:21.633Z,4.10
2018-08-17T21:31:49.048Z,3.60
2018-08-17T21:34:16.603Z,3.53
2018-08-17T21:36:44.195Z,4.07
2018-08-17T21:39:11.837Z,3.40
2018-08-17T21:41:39.387Z,3.13
2018-08-17T21:44:06.978Z,3.50
2018-08-17T21:46:34.524Z,3.70
2018-08-17T21:49:02.053Z,3.37
2018-08-17T21:51:29.616Z,3.80
2018-08-17T21:53:57.154Z,3.50
2018-08-17T21:56:24.740Z,3.70
2018-08-17T21:58:52.425Z,3.50
2018-08-17T22:01:20.012Z,3.60
2018-08-17T22:03:47.634Z,3.67
2018-08-17T22:06:15.236Z,3.90
2018-08-17T22:08:42.924Z,3.07
2018-08-17T22:11:10.527Z,3.70
2018-08-17T22:13:38.127Z,3.63
2018-08-17T22:16:05.692Z,3.87
2018-08-17T22:18:33.287Z,3.83
2018-08-17T22:21:00.831Z,3.87
2018-08-17T22:23:28.428Z,4.23
2018-08-17T22:25:55.995Z,4.10
2018-08-17T22:28:23.552Z,4.20
2018-08-17T22:30:51.079Z,3.80
2018-08-17T22:33:18.650Z,4.20
2018-08-17T22:35:46.235Z,4.03
2018-08-17T22:38:13.823Z,4.43
2018-08-17T22:40:41.400Z,4.40
2018-08-17T22:43:08.926Z,5.00
2018-08-17T22:45:36.667Z,5.43
2018-08-17T22:48:04.214Z,5.37
2018-08-17T22:50:31.792Z,5.40
2018-08-17T22:52:59.380Z,5.63
2018-08-17T22:55:26.975Z,6.07
2018-08-17T22:57:54.545Z,5.57
2018-08-17T23:00:22.140Z,5.70
2018-08-17T23:02:49.676Z,5.28
2018-08-17T23:05:17.255Z,6.70
2018-08-17T23:07:44.781Z,5.90
2018-08-17T23:10:12.343Z,5.53
2018-08-17T23:12:39.924Z,5.77
2018-08-17T23:15:07.493Z,5.93
2018-08-17T23:17:35.087Z,5.33
2018-08-17T23:20:02.670Z,6.00
2018-08-17T23:22:30.219Z,5.40
2018-08-17T23:24:57.740Z,5.27
2018-08-17T23:27:25.311Z,5.10
2018-08-17T23:29:52.845Z,5.00
2018-08-17T23:32:20.561Z,5.90
2018-08-17T23:34:48.420Z,4.77
2018-08-17T23:37:16.008Z,4.90
2018-08-17T23:39:43.583Z,5.47
2018-08-17T23:42:11.117Z,4.50
2018-08-17T23:44:38.707Z,4.80
2018-08-17T23:47:06.323Z,4.62
2018-08-17T23:49:33.925Z,5.57
2018-08-17T23:52:01.466Z,5.00
2018-08-17T23:54:29.034Z,5.47
2018-08-17T23:56:56.627Z,5.53
2018-08-17T23:59:24.181Z,5.40
